sensor_id;sensor_type;location;lat;lon;timestamp;P1;durP1;ratioP1;P2;durP2;ratioP2
8161;SDS011;16778;48.154;15.094;2022-07-23T00:02:06;5.50;;;3.40;;
8161;SDS011;16778;48.154;15.094;2022-07-23T00:04:32;4.60;;;3.10;;
8161;SDS011;16778;48.154;15.094;2022-07-23T00:06:58;4.50;;;3.10;;
8161;SDS011;16778;48.154;15.094;2022-07-23T00:09:24;3.13;;;2.60;;
8161;SDS011;16778;48.154;15.094;2022-07-23T00:11:51;4.43;;;3.00;;
8161;SDS011;16778;48.154;15.094;2022-07-23T00:14:17;3.07;;;2.50;;
8161;SDS011;16778;48.154;15.094;2022-07-23T00:16:42;3.23;;;2.70;;
8161;SDS011;16778;48.154;15.094;2022-07-23T00:19:08;3.73;;;2.70;;
8161;SDS011;16778;48.154;15.094;2022-07-23T00:21:34;5.03;;;3.50;;
8161;SDS011;16778;48.154;15.094;2022-07-23T00:24:00;3.70;;;2.93;;
8161;SDS011;16778;48.154;15.094;2022-07-23T00:26:26;4.23;;;3.03;;
8161;SDS011;16778;48.154;15.094;2022-07-23T00:28:52;4.80;;;3.53;;
8161;SDS011;16778;48.154;15.094;2022-07-23T00:31:18;4.53;;;3.10;;
8161;SDS011;16778;48.154;15.094;2022-07-23T00:33:43;4.17;;;2.90;;
8161;SDS011;16778;48.154;15.094;2022-07-23T00:36:09;4.93;;;3.40;;
8161;SDS011;16778;48.154;15.094;2022-07-23T00:38:35;4.00;;;3.27;;
8161;SDS011;16778;48.154;15.094;2022-07-23T00:41:01;4.27;;;3.37;;
8161;SDS011;16778;48.154;15.094;2022-07-23T00:43:27;4.87;;;3.23;;
8161;SDS011;16778;48.154;15.094;2022-07-23T00:45:53;4.53;;;2.97;;
8161;SDS011;16778;48.154;15.094;2022-07-23T00:48:19;7.63;;;3.40;;
8161;SDS011;16778;48.154;15.094;2022-07-23T00:50:45;3.90;;;2.73;;
8161;SDS011;16778;48.154;15.094;2022-07-23T00:53:10;4.67;;;3.13;;
8161;SDS011;16778;48.154;15.094;2022-07-23T00:55:37;3.37;;;2.97;;
8161;SDS011;16778;48.154;15.094;2022-07-23T00:58:03;3.07;;;2.77;;
8161;SDS011;16778;48.154;15.094;2022-07-23T01:00:31;3.73;;;2.90;;
8161;SDS011;16778;48.154;15.094;2022-07-23T01:02:57;4.40;;;3.20;;
8161;SDS011;16778;48.154;15.094;2022-07-23T01:05:23;3.93;;;3.07;;
8161;SDS011;16778;48.154;15.094;2022-07-23T01:07:49;5.53;;;3.00;;
8161;SDS011;16778;48.154;15.094;2022-07-23T01:10:16;5.40;;;3.40;;
8161;SDS011;16778;48.154;15.094;2022-07-23T01:13:08;3.73;;;2.97;;
8161;SDS011;16778;48.154;15.094;2022-07-23T01:15:35;4.13;;;2.97;;
8161;SDS011;16778;48.154;15.094;2022-07-23T01:18:03;4.80;;;3.50;;
8161;SDS011;16778;48.154;15.094;2022-07-23T01:20:31;3.47;;;2.87;;
8161;SDS011;16778;48.154;15.094;2022-07-23T01:22:58;3.53;;;3.10;;
8161;SDS011;16778;48.154;15.094;2022-07-23T01:25:24;4.80;;;2.90;;
8161;SDS011;16778;48.154;15.094;2022-07-23T01:27:53;3.67;;;3.07;;
8161;SDS011;16778;48.154;15.094;2022-07-23T01:30:19;4.37;;;3.30;;
8161;SDS011;16778;48.154;15.094;2022-07-23T01:32:45;4.70;;;2.77;;
8161;SDS011;16778;48.154;15.094;2022-07-23T01:35:11;4.67;;;3.60;;
8161;SDS011;16778;48.154;15.094;2022-07-23T01:37:38;4.07;;;3.23;;
8161;SDS011;16778;48.154;15.094;2022-07-23T01:40:04;4.87;;;3.13;;
8161;SDS011;16778;48.154;15.094;2022-07-23T01:42:32;3.60;;;2.90;;
8161;SDS011;16778;48.154;15.094;2022-07-23T01:44:57;3.87;;;3.10;;
8161;SDS011;16778;48.154;15.094;2022-07-23T01:47:23;4.23;;;2.80;;
8161;SDS011;16778;48.154;15.094;2022-07-23T01:49:49;3.40;;;3.10;;
8161;SDS011;16778;48.154;15.094;2022-07-23T01:52:15;3.40;;;3.10;;
8161;SDS011;16778;48.154;15.094;2022-07-23T01:54:41;3.80;;;3.23;;
8161;SDS011;16778;48.154;15.094;2022-07-23T01:57:07;3.77;;;3.20;;
8161;SDS011;16778;48.154;15.094;2022-07-23T01:59:34;5.00;;;3.37;;
8161;SDS011;16778;48.154;15.094;2022-07-23T02:02:01;4.63;;;3.43;;
8161;SDS011;16778;48.154;15.094;2022-07-23T02:04:28;3.80;;;2.80;;
8161;SDS011;16778;48.154;15.094;2022-07-23T02:06:54;3.03;;;2.37;;
8161;SDS011;16778;48.154;15.094;2022-07-23T02:09:20;3.63;;;2.87;;
8161;SDS011;16778;48.154;15.094;2022-07-23T02:11:47;3.80;;;2.90;;
8161;SDS011;16778;48.154;15.094;2022-07-23T02:14:16;3.23;;;2.27;;
8161;SDS011;16778;48.154;15.094;2022-07-23T02:16:42;4.03;;;3.03;;
8161;SDS011;16778;48.154;15.094;2022-07-23T02:19:07;4.17;;;2.83;;
8161;SDS011;16778;48.154;15.094;2022-07-23T02:21:33;4.20;;;3.27;;
8161;SDS011;16778;48.154;15.094;2022-07-23T02:23:59;4.53;;;3.60;;
8161;SDS011;16778;48.154;15.094;2022-07-23T02:26:25;4.60;;;3.17;;
8161;SDS011;16778;48.154;15.094;2022-07-23T02:28:51;4.30;;;3.17;;
8161;SDS011;16778;48.154;15.094;2022-07-23T02:31:18;3.43;;;2.70;;
8161;SDS011;16778;48.154;15.094;2022-07-23T02:33:44;5.57;;;3.43;;
8161;SDS011;16778;48.154;15.094;2022-07-23T02:36:09;2.63;;;2.37;;
8161;SDS011;16778;48.154;15.094;2022-07-23T02:38:35;2.93;;;2.60;;
8161;SDS011;16778;48.154;15.094;2022-07-23T02:41:01;3.93;;;3.00;;
8161;SDS011;16778;48.154;15.094;2022-07-23T02:43:27;3.50;;;2.97;;
8161;SDS011;16778;48.154;15.094;2022-07-23T02:45:53;3.20;;;2.60;;
8161;SDS011;16778;48.154;15.094;2022-07-23T02:48:19;3.70;;;2.60;;
8161;SDS011;16778;48.154;15.094;2022-07-23T02:50:45;3.80;;;2.50;;
8161;SDS011;16778;48.154;15.094;2022-07-23T02:53:11;5.50;;;2.80;;
8161;SDS011;16778;48.154;15.094;2022-07-23T02:55:36;3.20;;;2.87;;
8161;SDS011;16778;48.154;15.094;2022-07-23T02:58:02;4.57;;;3.00;;
8161;SDS011;16778;48.154;15.094;2022-07-23T03:00:28;3.83;;;2.70;;
8161;SDS011;16778;48.154;15.094;2022-07-23T03:02:54;4.27;;;3.37;;
8161;SDS011;16778;48.154;15.094;2022-07-23T03:05:20;4.70;;;2.90;;
8161;SDS011;16778;48.154;15.094;2022-07-23T03:07:45;4.80;;;3.30;;
8161;SDS011;16778;48.154;15.094;2022-07-23T03:10:11;4.17;;;2.73;;
8161;SDS011;16778;48.154;15.094;2022-07-23T03:12:37;3.27;;;2.80;;
8161;SDS011;16778;48.154;15.094;2022-07-23T03:15:03;2.60;;;2.37;;
8161;SDS011;16778;48.154;15.094;2022-07-23T03:17:30;4.10;;;2.93;;
8161;SDS011;16778;48.154;15.094;2022-07-23T03:19:56;3.70;;;2.70;;
8161;SDS011;16778;48.154;15.094;2022-07-23T03:22:22;3.47;;;2.50;;
8161;SDS011;16778;48.154;15.094;2022-07-23T03:24:48;3.00;;;2.70;;
8161;SDS011;16778;48.154;15.094;2022-07-23T03:27:20;3.93;;;3.27;;
8161;SDS011;16778;48.154;15.094;2022-07-23T03:29:47;11.27;;;2.87;;
8161;SDS011;16778;48.154;15.094;2022-07-23T03:32:15;3.90;;;2.80;;
8161;SDS011;16778;48.154;15.094;2022-07-23T03:34:41;3.33;;;2.70;;
8161;SDS011;16778;48.154;15.094;2022-07-23T03:37:06;4.03;;;2.97;;
8161;SDS011;16778;48.154;15.094;2022-07-23T03:39:32;2.87;;;2.23;;
8161;SDS011;16778;48.154;15.094;2022-07-23T03:41:58;3.07;;;2.77;;
8161;SDS011;16778;48.154;15.094;2022-07-23T03:44:24;3.13;;;2.37;;
8161;SDS011;16778;48.154;15.094;2022-07-23T03:46:50;3.07;;;2.50;;
8161;SDS011;16778;48.154;15.094;2022-07-23T03:49:16;4.03;;;2.87;;
8161;SDS011;16778;48.154;15.094;2022-07-23T03:51:42;3.33;;;2.63;;
8161;SDS011;16778;48.154;15.094;2022-07-23T03:54:08;3.47;;;2.70;;
8161;SDS011;16778;48.154;15.094;2022-07-23T03:56:33;3.40;;;2.60;;
8161;SDS011;16778;48.154;15.094;2022-07-23T03:59:00;3.80;;;2.90;;
8161;SDS011;16778;48.154;15.094;2022-07-23T04:01:26;4.47;;;2.60;;
8161;SDS011;16778;48.154;15.094;2022-07-23T04:03:52;4.57;;;2.47;;
8161;SDS011;16778;48.154;15.094;2022-07-23T04:06:17;3.00;;;2.37;;
8161;SDS011;16778;48.154;15.094;2022-07-23T04:08:44;2.23;;;1.97;;
8161;SDS011;16778;48.154;15.094;2022-07-23T04:11:10;3.30;;;2.33;;
8161;SDS011;16778;48.154;15.094;2022-07-23T04:13:36;3.10;;;2.23;;
8161;SDS011;16778;48.154;15.094;2022-07-23T04:16:02;2.57;;;2.10;;
8161;SDS011;16778;48.154;15.094;2022-07-23T04:18:29;6.03;;;2.00;;
8161;SDS011;16778;48.154;15.094;2022-07-23T04:20:54;3.80;;;2.80;;
8161;SDS011;16778;48.154;15.094;2022-07-23T04:23:20;2.67;;;1.93;;
8161;SDS011;16778;48.154;15.094;2022-07-23T04:25:46;4.20;;;2.90;;
8161;SDS011;16778;48.154;15.094;2022-07-23T04:28:12;3.53;;;2.57;;
8161;SDS011;16778;48.154;15.094;2022-07-23T04:30:38;2.37;;;2.10;;
8161;SDS011;16778;48.154;15.094;2022-07-23T04:33:04;3.90;;;2.83;;
8161;SDS011;16778;48.154;15.094;2022-07-23T04:35:33;3.63;;;2.33;;
8161;SDS011;16778;48.154;15.094;2022-07-23T04:38:00;2.87;;;2.30;;
8161;SDS011;16778;48.154;15.094;2022-07-23T04:40:27;3.60;;;1.80;;
8161;SDS011;16778;48.154;15.094;2022-07-23T04:42:53;2.83;;;2.30;;
8161;SDS011;16778;48.154;15.094;2022-07-23T04:45:19;3.37;;;2.50;;
8161;SDS011;16778;48.154;15.094;2022-07-23T04:47:45;3.03;;;2.60;;
8161;SDS011;16778;48.154;15.094;2022-07-23T04:50:11;3.30;;;2.67;;
8161;SDS011;16778;48.154;15.094;2022-07-23T04:52:37;2.60;;;2.10;;
8161;SDS011;16778;48.154;15.094;2022-07-23T04:55:03;5.13;;;2.80;;
8161;SDS011;16778;48.154;15.094;2022-07-23T04:57:33;3.47;;;2.50;;
8161;SDS011;16778;48.154;15.094;2022-07-23T04:59:59;4.07;;;2.50;;
8161;SDS011;16778;48.154;15.094;2022-07-23T05:02:24;4.57;;;2.43;;
8161;SDS011;16778;48.154;15.094;2022-07-23T05:04:50;3.43;;;2.63;;
8161;SDS011;16778;48.154;15.094;2022-07-23T05:07:16;4.30;;;2.87;;
8161;SDS011;16778;48.154;15.094;2022-07-23T05:09:42;4.63;;;3.30;;
8161;SDS011;16778;48.154;15.094;2022-07-23T05:12:08;4.20;;;2.90;;
8161;SDS011;16778;48.154;15.094;2022-07-23T05:14:34;3.20;;;2.43;;
8161;SDS011;16778;48.154;15.094;2022-07-23T05:16:59;4.27;;;3.00;;
8161;SDS011;16778;48.154;15.094;2022-07-23T05:19:25;2.73;;;2.13;;
8161;SDS011;16778;48.154;15.094;2022-07-23T05:21:51;4.13;;;3.13;;
8161;SDS011;16778;48.154;15.094;2022-07-23T05:24:17;4.07;;;2.90;;
8161;SDS011;16778;48.154;15.094;2022-07-23T05:26:43;2.83;;;1.90;;
8161;SDS011;16778;48.154;15.094;2022-07-23T05:29:11;2.57;;;1.90;;
8161;SDS011;16778;48.154;15.094;2022-07-23T05:31:37;3.77;;;2.40;;
8161;SDS011;16778;48.154;15.094;2022-07-23T05:34:03;2.93;;;2.47;;
8161;SDS011;16778;48.154;15.094;2022-07-23T05:36:30;3.17;;;2.07;;
8161;SDS011;16778;48.154;15.094;2022-07-23T05:38:57;2.40;;;2.20;;
8161;SDS011;16778;48.154;15.094;2022-07-23T05:41:23;2.87;;;2.17;;
8161;SDS011;16778;48.154;15.094;2022-07-23T05:43:49;2.77;;;2.10;;
8161;SDS011;16778;48.154;15.094;2022-07-23T05:46:15;2.77;;;2.10;;
8161;SDS011;16778;48.154;15.094;2022-07-23T05:48:41;2.80;;;2.07;;
8161;SDS011;16778;48.154;15.094;2022-07-23T05:51:08;5.17;;;2.37;;
8161;SDS011;16778;48.154;15.094;2022-07-23T05:53:34;5.57;;;3.17;;
8161;SDS011;16778;48.154;15.094;2022-07-23T05:56:00;3.87;;;2.70;;
8161;SDS011;16778;48.154;15.094;2022-07-23T05:58:26;2.13;;;1.80;;
8161;SDS011;16778;48.154;15.094;2022-07-23T06:00:52;2.33;;;2.13;;
8161;SDS011;16778;48.154;15.094;2022-07-23T06:03:18;2.40;;;1.90;;
8161;SDS011;16778;48.154;15.094;2022-07-23T06:05:45;2.40;;;1.83;;
8161;SDS011;16778;48.154;15.094;2022-07-23T06:08:11;1.73;;;1.57;;
8161;SDS011;16778;48.154;15.094;2022-07-23T06:10:36;1.83;;;1.17;;
8161;SDS011;16778;48.154;15.094;2022-07-23T06:13:02;1.37;;;1.20;;
8161;SDS011;16778;48.154;15.094;2022-07-23T06:15:28;1.80;;;1.60;;
8161;SDS011;16778;48.154;15.094;2022-07-23T06:17:55;2.03;;;1.77;;
8161;SDS011;16778;48.154;15.094;2022-07-23T06:20:21;1.60;;;1.47;;
8161;SDS011;16778;48.154;15.094;2022-07-23T06:22:47;3.20;;;1.77;;
8161;SDS011;16778;48.154;15.094;2022-07-23T06:25:13;2.57;;;1.77;;
8161;SDS011;16778;48.154;15.094;2022-07-23T06:27:39;1.83;;;1.60;;
8161;SDS011;16778;48.154;15.094;2022-07-23T06:30:05;3.53;;;1.67;;
8161;SDS011;16778;48.154;15.094;2022-07-23T06:32:33;2.10;;;1.90;;
8161;SDS011;16778;48.154;15.094;2022-07-23T06:34:59;2.27;;;1.73;;
8161;SDS011;16778;48.154;15.094;2022-07-23T06:37:24;2.13;;;1.87;;
8161;SDS011;16778;48.154;15.094;2022-07-23T06:39:50;1.63;;;1.40;;
8161;SDS011;16778;48.154;15.094;2022-07-23T06:42:16;2.10;;;1.33;;
8161;SDS011;16778;48.154;15.094;2022-07-23T06:44:42;1.60;;;1.40;;
8161;SDS011;16778;48.154;15.094;2022-07-23T06:47:08;1.70;;;1.50;;
8161;SDS011;16778;48.154;15.094;2022-07-23T06:49:34;2.13;;;1.30;;
8161;SDS011;16778;48.154;15.094;2022-07-23T06:52:03;2.20;;;1.67;;
8161;SDS011;16778;48.154;15.094;2022-07-23T06:54:29;1.40;;;1.30;;
8161;SDS011;16778;48.154;15.094;2022-07-23T06:56:54;2.30;;;1.93;;
8161;SDS011;16778;48.154;15.094;2022-07-23T06:59:20;2.40;;;1.30;;
8161;SDS011;16778;48.154;15.094;2022-07-23T07:01:46;1.40;;;1.30;;
8161;SDS011;16778;48.154;15.094;2022-07-23T07:04:12;2.13;;;1.33;;
8161;SDS011;16778;48.154;15.094;2022-07-23T07:06:38;2.23;;;1.60;;
8161;SDS011;16778;48.154;15.094;2022-07-23T07:09:03;1.70;;;1.37;;
8161;SDS011;16778;48.154;15.094;2022-07-23T07:11:29;1.80;;;1.40;;
8161;SDS011;16778;48.154;15.094;2022-07-23T07:13:55;1.83;;;1.67;;
8161;SDS011;16778;48.154;15.094;2022-07-23T07:16:21;1.10;;;0.97;;
8161;SDS011;16778;48.154;15.094;2022-07-23T07:18:47;1.30;;;1.10;;
8161;SDS011;16778;48.154;15.094;2022-07-23T07:21:13;2.13;;;1.53;;
8161;SDS011;16778;48.154;15.094;2022-07-23T07:23:39;1.53;;;1.40;;
8161;SDS011;16778;48.154;15.094;2022-07-23T07:26:05;2.37;;;1.83;;
8161;SDS011;16778;48.154;15.094;2022-07-23T07:28:31;1.60;;;1.40;;
8161;SDS011;16778;48.154;15.094;2022-07-23T07:30:57;1.97;;;1.77;;
8161;SDS011;16778;48.154;15.094;2022-07-23T07:33:23;1.63;;;1.53;;
8161;SDS011;16778;48.154;15.094;2022-07-23T07:35:49;1.57;;;1.40;;
8161;SDS011;16778;48.154;15.094;2022-07-23T07:38:21;1.27;;;1.17;;
8161;SDS011;16778;48.154;15.094;2022-07-23T07:40:47;1.50;;;1.20;;
8161;SDS011;16778;48.154;15.094;2022-07-23T07:43:13;1.50;;;1.40;;
8161;SDS011;16778;48.154;15.094;2022-07-23T07:45:39;2.33;;;1.60;;
8161;SDS011;16778;48.154;15.094;2022-07-23T07:48:05;1.53;;;1.20;;
8161;SDS011;16778;48.154;15.094;2022-07-23T07:50:31;2.27;;;2.07;;
8161;SDS011;16778;48.154;15.094;2022-07-23T07:52:57;1.43;;;1.33;;
8161;SDS011;16778;48.154;15.094;2022-07-23T07:55:23;1.47;;;1.37;;
8161;SDS011;16778;48.154;15.094;2022-07-23T07:57:49;1.63;;;1.00;;
8161;SDS011;16778;48.154;15.094;2022-07-23T08:00:15;3.03;;;1.70;;
8161;SDS011;16778;48.154;15.094;2022-07-23T08:02:45;2.83;;;1.83;;
8161;SDS011;16778;48.154;15.094;2022-07-23T08:05:14;1.30;;;1.17;;
8161;SDS011;16778;48.154;15.094;2022-07-23T08:07:49;1.70;;;1.50;;
8161;SDS011;16778;48.154;15.094;2022-07-23T08:10:16;1.63;;;1.30;;
8161;SDS011;16778;48.154;15.094;2022-07-23T08:12:43;1.87;;;1.50;;
8161;SDS011;16778;48.154;15.094;2022-07-23T08:15:13;1.27;;;1.00;;
8161;SDS011;16778;48.154;15.094;2022-07-23T08:17:42;1.13;;;1.00;;
8161;SDS011;16778;48.154;15.094;2022-07-23T08:20:11;2.40;;;1.30;;
8161;SDS011;16778;48.154;15.094;2022-07-23T08:22:46;2.80;;;1.40;;
8161;SDS011;16778;48.154;15.094;2022-07-23T08:25:32;1.57;;;1.30;;
8161;SDS011;16778;48.154;15.094;2022-07-23T08:28:03;2.10;;;1.60;;
8161;SDS011;16778;48.154;15.094;2022-07-23T08:30:32;1.97;;;1.20;;
8161;SDS011;16778;48.154;15.094;2022-07-23T08:33:00;1.70;;;1.60;;
8161;SDS011;16778;48.154;15.094;2022-07-23T08:35:40;1.67;;;1.40;;
8161;SDS011;16778;48.154;15.094;2022-07-23T08:38:10;1.87;;;1.73;;
8161;SDS011;16778;48.154;15.094;2022-07-23T08:40:39;1.20;;;1.10;;
8161;SDS011;16778;48.154;15.094;2022-07-23T08:43:08;1.80;;;1.37;;
8161;SDS011;16778;48.154;15.094;2022-07-23T08:45:39;1.23;;;1.03;;
8161;SDS011;16778;48.154;15.094;2022-07-23T08:48:14;1.53;;;1.43;;
8161;SDS011;16778;48.154;15.094;2022-07-23T08:50:46;1.33;;;1.00;;
8161;SDS011;16778;48.154;15.094;2022-07-23T08:53:25;1.67;;;1.40;;
8161;SDS011;16778;48.154;15.094;2022-07-23T08:55:53;1.50;;;1.30;;
8161;SDS011;16778;48.154;15.094;2022-07-23T08:58:22;1.80;;;1.40;;
8161;SDS011;16778;48.154;15.094;2022-07-23T09:00:49;1.90;;;1.47;;
8161;SDS011;16778;48.154;15.094;2022-07-23T09:03:17;1.93;;;1.50;;
8161;SDS011;16778;48.154;15.094;2022-07-23T09:05:52;1.27;;;1.13;;
8161;SDS011;16778;48.154;15.094;2022-07-23T09:08:24;1.80;;;1.53;;
8161;SDS011;16778;48.154;15.094;2022-07-23T09:11:04;1.53;;;1.40;;
8161;SDS011;16778;48.154;15.094;2022-07-23T09:16:14;1.37;;;1.20;;
8161;SDS011;16778;48.154;15.094;2022-07-23T09:21:23;2.17;;;1.40;;
8161;SDS011;16778;48.154;15.094;2022-07-23T09:32:00;1.23;;;1.10;;
8161;SDS011;16778;48.154;15.094;2022-07-23T09:37:16;1.03;;;0.87;;
8161;SDS011;16778;48.154;15.094;2022-07-23T09:39:44;1.97;;;1.50;;
8161;SDS011;16778;48.154;15.094;2022-07-23T09:44:52;1.47;;;1.20;;
8161;SDS011;16778;48.154;15.094;2022-07-23T09:47:20;1.00;;;0.90;;
8161;SDS011;16778;48.154;15.094;2022-07-23T09:49:58;1.10;;;1.00;;
8161;SDS011;16778;48.154;15.094;2022-07-23T09:52:28;1.87;;;1.23;;
8161;SDS011;16778;48.154;15.094;2022-07-23T09:55:07;1.40;;;1.13;;
8161;SDS011;16778;48.154;15.094;2022-07-23T09:57:33;1.30;;;1.20;;
8161;SDS011;16778;48.154;15.094;2022-07-23T10:00:01;1.80;;;1.50;;
8161;SDS011;16778;48.154;15.094;2022-07-23T10:02:31;1.20;;;1.10;;
8161;SDS011;16778;48.154;15.094;2022-07-23T10:04:58;2.07;;;1.50;;
8161;SDS011;16778;48.154;15.094;2022-07-23T10:07:26;1.97;;;1.47;;
8161;SDS011;16778;48.154;15.094;2022-07-23T10:09:56;1.30;;;1.20;;
8161;SDS011;16778;48.154;15.094;2022-07-23T10:12:23;1.53;;;1.40;;
8161;SDS011;16778;48.154;15.094;2022-07-23T10:14:59;1.77;;;1.67;;
8161;SDS011;16778;48.154;15.094;2022-07-23T10:17:25;1.50;;;1.40;;
8161;SDS011;16778;48.154;15.094;2022-07-23T10:19:54;3.70;;;1.10;;
8161;SDS011;16778;48.154;15.094;2022-07-23T10:39:13;2.30;;;1.50;;
8161;SDS011;16778;48.154;15.094;2022-07-23T10:41:53;1.63;;;1.37;;
8161;SDS011;16778;48.154;15.094;2022-07-23T10:44:42;2.00;;;1.30;;
8161;SDS011;16778;48.154;15.094;2022-07-23T10:47:11;2.23;;;1.50;;
8161;SDS011;16778;48.154;15.094;2022-07-23T10:50:16;1.90;;;1.70;;
8161;SDS011;16778;48.154;15.094;2022-07-23T10:58:03;1.37;;;1.23;;
8161;SDS011;16778;48.154;15.094;2022-07-23T11:00:31;1.30;;;1.13;;
8161;SDS011;16778;48.154;15.094;2022-07-23T11:02:59;2.20;;;1.60;;
8161;SDS011;16778;48.154;15.094;2022-07-23T11:05:50;1.87;;;1.50;;
8161;SDS011;16778;48.154;15.094;2022-07-23T11:08:16;1.40;;;1.30;;
8161;SDS011;16778;48.154;15.094;2022-07-23T11:10:47;1.73;;;1.43;;
8161;SDS011;16778;48.154;15.094;2022-07-23T11:26:49;3.23;;;1.57;;
8161;SDS011;16778;48.154;15.094;2022-07-23T11:32:03;2.03;;;1.70;;
8161;SDS011;16778;48.154;15.094;2022-07-23T11:34:43;2.53;;;1.90;;
8161;SDS011;16778;48.154;15.094;2022-07-23T11:37:31;1.80;;;1.43;;
8161;SDS011;16778;48.154;15.094;2022-07-23T11:40:09;1.73;;;1.50;;
8161;SDS011;16778;48.154;15.094;2022-07-23T11:42:40;1.80;;;1.42;;
8161;SDS011;16778;48.154;15.094;2022-07-23T11:45:25;1.88;;;1.60;;
8161;SDS011;16778;48.154;15.094;2022-07-23T11:48:17;1.15;;;1.05;;
8161;SDS011;16778;48.154;15.094;2022-07-23T11:50:52;1.02;;;0.90;;
8161;SDS011;16778;48.154;15.094;2022-07-23T11:56:04;1.13;;;0.93;;
8161;SDS011;16778;48.154;15.094;2022-07-23T11:58:36;1.30;;;1.20;;
8161;SDS011;16778;48.154;15.094;2022-07-23T12:01:03;0.85;;;0.80;;
8161;SDS011;16778;48.154;15.094;2022-07-23T12:03:30;2.45;;;1.30;;
8161;SDS011;16778;48.154;15.094;2022-07-23T12:05:59;1.25;;;1.00;;
8161;SDS011;16778;48.154;15.094;2022-07-23T12:08:26;0.80;;;0.80;;
8161;SDS011;16778;48.154;15.094;2022-07-23T12:10:52;0.77;;;0.75;;
8161;SDS011;16778;48.154;15.094;2022-07-23T12:13:19;1.37;;;1.20;;
8161;SDS011;16778;48.154;15.094;2022-07-23T12:15:48;1.47;;;1.03;;
8161;SDS011;16778;48.154;15.094;2022-07-23T12:18:20;1.00;;;0.80;;
8161;SDS011;16778;48.154;15.094;2022-07-23T12:20:52;1.30;;;0.90;;
8161;SDS011;16778;48.154;15.094;2022-07-23T12:23:22;0.70;;;0.70;;
8161;SDS011;16778;48.154;15.094;2022-07-23T12:25:50;0.70;;;0.70;;
8161;SDS011;16778;48.154;15.094;2022-07-23T12:28:18;1.03;;;1.00;;
8161;SDS011;16778;48.154;15.094;2022-07-23T12:33:33;1.40;;;1.00;;
8161;SDS011;16778;48.154;15.094;2022-07-23T12:36:03;1.47;;;1.20;;
8161;SDS011;16778;48.154;15.094;2022-07-23T12:38:39;1.30;;;0.97;;
8161;SDS011;16778;48.154;15.094;2022-07-23T12:41:12;1.37;;;1.20;;
8161;SDS011;16778;48.154;15.094;2022-07-23T12:43:39;1.03;;;0.70;;
8161;SDS011;16778;48.154;15.094;2022-07-23T12:46:09;1.60;;;1.10;;
8161;SDS011;16778;48.154;15.094;2022-07-23T12:51:14;1.23;;;1.10;;
8161;SDS011;16778;48.154;15.094;2022-07-23T12:54:08;1.43;;;1.00;;
8161;SDS011;16778;48.154;15.094;2022-07-23T12:56:35;0.87;;;0.87;;
8161;SDS011;16778;48.154;15.094;2022-07-23T13:01:36;0.80;;;0.80;;
8161;SDS011;16778;48.154;15.094;2022-07-23T13:06:36;1.13;;;1.00;;
8161;SDS011;16778;48.154;15.094;2022-07-23T13:09:08;1.53;;;1.13;;
8161;SDS011;16778;48.154;15.094;2022-07-23T13:11:38;1.17;;;1.00;;
8161;SDS011;16778;48.154;15.094;2022-07-23T13:14:04;3.20;;;1.40;;
8161;SDS011;16778;48.154;15.094;2022-07-23T13:16:31;0.60;;;0.60;;
8161;SDS011;16778;48.154;15.094;2022-07-23T13:18:58;1.50;;;1.00;;
8161;SDS011;16778;48.154;15.094;2022-07-23T13:21:26;1.73;;;1.40;;
8161;SDS011;16778;48.154;15.094;2022-07-23T13:23:53;0.80;;;0.80;;
8161;SDS011;16778;48.154;15.094;2022-07-23T13:26:20;1.73;;;0.77;;
8161;SDS011;16778;48.154;15.094;2022-07-23T13:28:46;0.57;;;0.50;;
8161;SDS011;16778;48.154;15.094;2022-07-23T13:31:12;1.03;;;0.93;;
8161;SDS011;16778;48.154;15.094;2022-07-23T13:33:38;1.30;;;1.03;;
8161;SDS011;16778;48.154;15.094;2022-07-23T13:36:04;1.83;;;1.20;;
8161;SDS011;16778;48.154;15.094;2022-07-23T13:38:31;1.20;;;1.03;;
8161;SDS011;16778;48.154;15.094;2022-07-23T13:40:57;1.20;;;1.00;;
8161;SDS011;16778;48.154;15.094;2022-07-23T13:43:24;2.13;;;1.03;;
8161;SDS011;16778;48.154;15.094;2022-07-23T13:45:51;1.13;;;1.03;;
8161;SDS011;16778;48.154;15.094;2022-07-23T13:48:18;2.08;;;1.20;;
8161;SDS011;16778;48.154;15.094;2022-07-23T13:50:45;2.80;;;1.20;;
8161;SDS011;16778;48.154;15.094;2022-07-23T13:53:16;3.47;;;0.98;;
8161;SDS011;16778;48.154;15.094;2022-07-23T13:55:46;1.73;;;1.20;;
8161;SDS011;16778;48.154;15.094;2022-07-23T13:58:13;1.10;;;1.00;;
8161;SDS011;16778;48.154;15.094;2022-07-23T14:00:44;1.20;;;1.00;;
8161;SDS011;16778;48.154;15.094;2022-07-23T14:03:15;1.23;;;1.13;;
8161;SDS011;16778;48.154;15.094;2022-07-23T14:05:41;1.75;;;1.25;;
8161;SDS011;16778;48.154;15.094;2022-07-23T14:08:07;1.48;;;1.38;;
8161;SDS011;16778;48.154;15.094;2022-07-23T14:10:33;1.00;;;0.90;;
8161;SDS011;16778;48.154;15.094;2022-07-23T14:13:00;1.30;;;1.17;;
8161;SDS011;16778;48.154;15.094;2022-07-23T14:15:27;1.75;;;1.30;;
8161;SDS011;16778;48.154;15.094;2022-07-23T14:17:54;1.13;;;1.08;;
8161;SDS011;16778;48.154;15.094;2022-07-23T14:20:21;1.27;;;1.17;;
8161;SDS011;16778;48.154;15.094;2022-07-23T14:22:47;1.10;;;1.02;;
8161;SDS011;16778;48.154;15.094;2022-07-23T14:25:14;1.27;;;1.17;;
8161;SDS011;16778;48.154;15.094;2022-07-23T14:27:41;1.58;;;1.48;;
8161;SDS011;16778;48.154;15.094;2022-07-23T14:30:07;1.20;;;1.10;;
8161;SDS011;16778;48.154;15.094;2022-07-23T14:32:34;1.63;;;1.40;;
8161;SDS011;16778;48.154;15.094;2022-07-23T14:35:01;1.50;;;1.25;;
8161;SDS011;16778;48.154;15.094;2022-07-23T14:37:29;1.33;;;1.20;;
8161;SDS011;16778;48.154;15.094;2022-07-23T14:39:55;1.67;;;1.58;;
8161;SDS011;16778;48.154;15.094;2022-07-23T14:42:21;1.70;;;1.20;;
8161;SDS011;16778;48.154;15.094;2022-07-23T14:44:47;2.03;;;1.38;;
8161;SDS011;16778;48.154;15.094;2022-07-23T14:47:13;1.50;;;1.25;;
8161;SDS011;16778;48.154;15.094;2022-07-23T14:49:39;1.45;;;1.35;;
8161;SDS011;16778;48.154;15.094;2022-07-23T14:52:05;1.48;;;1.33;;
8161;SDS011;16778;48.154;15.094;2022-07-23T14:54:31;1.17;;;1.10;;
8161;SDS011;16778;48.154;15.094;2022-07-23T14:56:58;1.40;;;1.30;;
8161;SDS011;16778;48.154;15.094;2022-07-23T14:59:26;1.30;;;1.20;;
8161;SDS011;16778;48.154;15.094;2022-07-23T15:01:52;1.25;;;1.00;;
8161;SDS011;16778;48.154;15.094;2022-07-23T15:04:19;1.55;;;1.45;;
8161;SDS011;16778;48.154;15.094;2022-07-23T15:06:46;2.10;;;1.67;;
8161;SDS011;16778;48.154;15.094;2022-07-23T15:09:13;1.98;;;1.25;;
8161;SDS011;16778;48.154;15.094;2022-07-23T15:11:39;1.77;;;1.63;;
8161;SDS011;16778;48.154;15.094;2022-07-23T15:14:05;1.63;;;1.38;;
8161;SDS011;16778;48.154;15.094;2022-07-23T15:16:33;1.50;;;1.30;;
8161;SDS011;16778;48.154;15.094;2022-07-23T15:18:59;1.33;;;1.23;;
8161;SDS011;16778;48.154;15.094;2022-07-23T15:21:27;1.40;;;1.30;;
8161;SDS011;16778;48.154;15.094;2022-07-23T15:23:54;1.20;;;1.10;;
8161;SDS011;16778;48.154;15.094;2022-07-23T15:26:23;1.35;;;1.25;;
8161;SDS011;16778;48.154;15.094;2022-07-23T15:28:54;1.45;;;1.35;;
8161;SDS011;16778;48.154;15.094;2022-07-23T15:31:21;1.15;;;1.05;;
8161;SDS011;16778;48.154;15.094;2022-07-23T15:33:48;1.50;;;1.40;;
8161;SDS011;16778;48.154;15.094;2022-07-23T15:36:14;1.20;;;1.10;;
8161;SDS011;16778;48.154;15.094;2022-07-23T15:38:43;1.80;;;1.35;;
8161;SDS011;16778;48.154;15.094;2022-07-23T15:41:09;1.40;;;1.30;;
8161;SDS011;16778;48.154;15.094;2022-07-23T15:43:35;1.40;;;1.30;;
8161;SDS011;16778;48.154;15.094;2022-07-23T15:46:01;1.33;;;1.20;;
8161;SDS011;16778;48.154;15.094;2022-07-23T15:48:28;1.45;;;1.25;;
8161;SDS011;16778;48.154;15.094;2022-07-23T15:50:54;0.90;;;0.90;;
8161;SDS011;16778;48.154;15.094;2022-07-23T15:53:20;1.35;;;1.25;;
8161;SDS011;16778;48.154;15.094;2022-07-23T15:55:46;1.40;;;1.30;;
8161;SDS011;16778;48.154;15.094;2022-07-23T15:58:12;1.27;;;1.17;;
8161;SDS011;16778;48.154;15.094;2022-07-23T16:00:38;1.60;;;1.20;;
8161;SDS011;16778;48.154;15.094;2022-07-23T16:03:04;1.10;;;1.00;;